アリススプリングス の空港の天気 - METARとTAF

アリス・スプリングス空港 ( YBAS / ASP ) - オーストラリア ノーザンテリトリーアリススプリングス
飛行場実況気象(Metar)
観測時間06/24 04:00 ACST (06/23 18:30 UTC)
風向・風速西北西 2m/s
視程10km以上
天気現象
なし
気温7℃
湿度53%
気圧1018hPa
METARYBAS 231830Z AUTO 30004KT 9999 // NCD 07/M02 Q1018 RF00.0/000.0
過去の天気等 Google飛行場航空写真 Wunderground天気予報

過去48時間のMETAR

飛行場予報(TAF)
発表時間: 6/24 02:32 ACST (6/23 17:02 UTC)
予報対象時間: 24日3時 ACST ~ 25日3時 ACST
風向・風速北西 3m/s
視程10km以上
なし
24日9時 ACST から
風向・風速東北東 4m/s
視程10km以上
なし
24日15時 ACST から
風向・風速東南東 3m/s
視程10km以上
なし
TAF YBAS 231702Z 2318/2418 31005KT CAVOK
FM240000 06008KT CAVOK
FM240600 11006KT CAVOK